Time,TemperatureF,DewpointF,PressureIn,WindDirection,WindDirectionDegrees,WindSpeedMPH,WindSpeedGustMPH,Humidity,HourlyPrecipIn,Conditions,Clouds,dailyrainin,SoftwareType,DateUTC
2013-07-28 00:02:00,73.0,66.0,29.91,SSW,197,3.0,7.0,78,0.00,,,0.29,,2013-07-28 04:02:00,
2013-07-28 00:12:00,73.0,66.0,29.90,SSW,202,2.0,5.0,78,0.00,,,0.29,,2013-07-28 04:12:00,
2013-07-28 00:22:00,72.0,65.0,29.90,SSW,209,3.0,6.0,79,0.00,,,0.29,,2013-07-28 04:22:00,
2013-07-28 00:32:00,72.0,65.0,29.90,SSW,211,2.0,4.0,79,0.00,,,0.29,,2013-07-28 04:32:00,
2013-07-28 00:53:00,72.0,65.0,29.90,SSW,212,1.0,4.0,80,0.00,,,0.29,,2013-07-28 04:53:00,
2013-07-28 01:02:00,72.0,65.0,29.89,SSW,213,3.0,6.0,80,0.00,,,0.29,,2013-07-28 05:02:00,
2013-07-28 01:12:00,72.0,65.0,29.89,SSW,201,2.0,7.0,80,0.00,,,0.29,,2013-07-28 05:12:00,
2013-07-28 01:22:00,72.0,65.0,29.89,SSW,203,2.0,7.0,80,0.00,,,0.29,,2013-07-28 05:22:00,
2013-07-28 01:32:00,72.0,66.0,29.88,SSW,201,2.0,6.0,81,0.00,,,0.29,,2013-07-28 05:32:00,
2013-07-28 01:43:00,72.0,66.0,29.88,SSW,196,2.0,7.0,81,0.00,,,0.29,,2013-07-28 05:43:00,
2013-07-28 01:53:00,72.0,66.0,29.88,SSW,198,2.0,7.0,81,0.00,,,0.29,,2013-07-28 05:53:00,
2013-07-28 02:02:00,72.0,66.0,29.88,SSW,210,2.0,7.0,81,0.00,,,0.29,,2013-07-28 06:02:00,
2013-07-28 02:12:00,72.0,66.0,29.88,SSW,205,1.0,6.0,81,0.00,,,0.29,,2013-07-28 06:12:00,
2013-07-28 02:22:00,72.0,66.0,29.88,SSW,197,2.0,7.0,81,0.00,,,0.29,,2013-07-28 06:22:00,
2013-07-28 02:32:00,71.0,65.0,29.88,SSW,194,5.0,7.0,81,0.00,,,0.29,,2013-07-28 06:32:00,
2013-07-28 02:43:00,71.0,65.0,29.88,SSW,200,3.0,6.0,82,0.00,,,0.29,,2013-07-28 06:43:00,
2013-07-28 02:52:00,71.0,65.0,29.88,SSW,200,2.0,4.0,82,0.00,,,0.29,,2013-07-28 06:52:00,
2013-07-28 03:02:00,71.0,65.0,29.88,SSW,200,2.0,3.0,82,0.00,,,0.29,,2013-07-28 07:02:00,
2013-07-28 03:12:00,71.0,65.0,29.88,SSW,200,1.0,4.0,82,0.00,,,0.29,,2013-07-28 07:12:00,
2013-07-28 03:23:00,71.0,65.0,29.88,SSW,200,2.0,3.0,82,0.00,,,0.29,,2013-07-28 07:23:00,
2013-07-28 03:32:00,71.0,65.0,29.88,SSW,200,1.0,4.0,82,0.00,,,0.29,,2013-07-28 07:32:00,
2013-07-28 03:43:00,71.0,65.0,29.87,SSW,200,1.0,4.0,82,0.00,,,0.29,,2013-07-28 07:43:00,
2013-07-28 03:53:00,71.0,65.0,29.87,SSW,200,1.0,4.0,82,0.00,,,0.29,,2013-07-28 07:53:00,
2013-07-28 04:02:00,71.0,65.0,29.87,SSW,200,1.0,4.0,82,0.00,,,0.29,,2013-07-28 08:02:00,
2013-07-28 04:12:00,71.0,65.0,29.87,SSW,200,0.0,4.0,82,0.00,,,0.29,,2013-07-28 08:12:00,
2013-07-28 04:22:00,71.0,65.0,29.87,SSW,200,0.0,2.0,82,0.00,,,0.29,,2013-07-28 08:22:00,
2013-07-28 04:33:00,71.0,65.0,29.87,SSW,200,1.0,3.0,82,0.00,,,0.29,,2013-07-28 08:33:00,
2013-07-28 04:43:00,71.0,65.0,29.87,SSW,198,2.0,6.0,82,0.00,,,0.29,,2013-07-28 08:43:00,
2013-07-28 04:53:00,71.0,65.0,29.87,SSW,200,1.0,6.0,82,0.00,,,0.29,,2013-07-28 08:53:00,
2013-07-28 05:02:00,71.0,65.0,29.87,SSW,200,1.0,5.0,82,0.00,,,0.29,,2013-07-28 09:02:00,
2013-07-28 05:12:00,71.0,65.0,29.87,SSW,211,3.0,9.0,82,0.00,,,0.29,,2013-07-28 09:12:00,
2013-07-28 05:22:00,71.0,65.0,29.87,SSW,207,3.0,7.0,82,0.00,,,0.29,,2013-07-28 09:22:00,
2013-07-28 05:32:00,71.0,65.0,29.88,SSW,210,3.0,7.0,82,0.00,,,0.29,,2013-07-28 09:32:00,
2013-07-28 05:43:00,71.0,65.0,29.88,SSW,205,2.0,7.0,82,0.00,,,0.29,,2013-07-28 09:43:00,
2013-07-28 05:53:00,71.0,65.0,29.88,SSW,202,1.0,6.0,82,0.00,,,0.29,,2013-07-28 09:53:00,
2013-07-28 06:02:00,71.0,65.0,29.88,SSW,201,0.0,6.0,82,0.00,,,0.29,,2013-07-28 10:02:00,
2013-07-28 06:12:00,71.0,65.0,29.89,SSW,201,2.0,4.0,82,0.00,,,0.29,,2013-07-28 10:12:00,
2013-07-28 06:22:00,71.0,65.0,29.89,SSW,200,2.0,5.0,82,0.00,,,0.29,,2013-07-28 10:22:00,
2013-07-28 06:33:00,71.0,65.0,29.89,SSW,201,3.0,7.0,82,0.00,,,0.29,,2013-07-28 10:33:00,
2013-07-28 06:42:00,71.0,65.0,29.89,SSW,193,2.0,5.0,82,0.00,,,0.29,,2013-07-28 10:42:00,
2013-07-28 06:52:00,71.0,65.0,29.89,South,180,3.0,10.0,82,0.00,,,0.29,,2013-07-28 10:52:00,
2013-07-28 07:12:00,71.0,65.0,29.90,SSW,211,3.0,6.0,82,0.00,,,0.29,,2013-07-28 11:12:00,
2013-07-28 07:22:00,71.0,65.0,29.91,SSW,211,4.0,7.0,82,0.00,,,0.29,,2013-07-28 11:22:00,
2013-07-28 07:33:00,72.0,66.0,29.91,SSW,211,2.0,4.0,82,0.00,,,0.29,,2013-07-28 11:33:00,
2013-07-28 07:43:00,72.0,66.0,29.91,SSW,211,1.0,4.0,82,0.00,,,0.29,,2013-07-28 11:43:00,
2013-07-28 07:54:00,72.0,66.0,29.91,SSW,211,1.0,4.0,82,0.00,,,0.29,,2013-07-28 11:54:00,
2013-07-28 08:02:00,72.0,66.0,29.91,SSW,211,0.0,4.0,82,0.00,,,0.29,,2013-07-28 12:02:00,
2013-07-28 08:12:00,72.0,66.0,29.91,SSW,211,2.0,4.0,82,0.00,,,0.29,,2013-07-28 12:12:00,
2013-07-28 08:22:00,72.0,66.0,29.92,SSW,211,2.0,4.0,82,0.00,,,0.29,,2013-07-28 12:22:00,
2013-07-28 08:33:00,72.0,66.0,29.91,SSW,212,3.0,6.0,82,0.00,,,0.29,,2013-07-28 12:33:00,
2013-07-28 08:43:00,72.0,66.0,29.91,SSW,210,3.0,6.0,82,0.00,,,0.29,,2013-07-28 12:43:00,
2013-07-28 08:53:00,72.0,66.0,29.91,SSW,210,0.0,2.0,82,0.00,,,0.29,,2013-07-28 12:53:00,
2013-07-28 09:12:00,73.0,67.0,29.90,SSW,210,2.0,4.0,82,0.00,,,0.29,,2013-07-28 13:12:00,
2013-07-28 09:22:00,73.0,67.0,29.89,SSW,210,2.0,5.0,81,0.00,,,0.29,,2013-07-28 13:22:00,
2013-07-28 09:32:00,74.0,67.0,29.90,SSW,213,1.0,6.0,80,0.00,,,0.29,,2013-07-28 13:32:00,
2013-07-28 09:43:00,74.0,67.0,29.90,SW,217,1.0,8.0,80,0.00,,,0.29,,2013-07-28 13:43:00,
2013-07-28 09:53:00,74.0,68.0,29.90,WSW,254,1.0,5.0,81,0.00,,,0.29,,2013-07-28 13:53:00,
2013-07-28 10:02:00,74.0,67.0,29.90,WSW,257,1.0,7.0,80,0.00,,,0.29,,2013-07-28 14:02:00,
2013-07-28 10:43:00,73.0,66.0,29.91,West,275,3.0,6.0,80,0.00,,,0.29,,2013-07-28 14:43:00,
2013-07-28 10:53:00,73.0,66.0,29.91,West,275,1.0,3.0,80,0.00,,,0.29,,2013-07-28 14:53:00,
2013-07-28 11:03:00,73.0,66.0,29.91,West,275,2.0,4.0,78,0.00,,,0.29,,2013-07-28 15:03:00,
2013-07-28 11:13:00,74.0,65.0,29.91,West,272,3.0,6.0,74,0.00,,,0.29,,2013-07-28 15:13:00,
2013-07-28 11:23:00,74.0,64.0,29.91,West,273,3.0,5.0,71,0.00,,,0.29,,2013-07-28 15:23:00,
2013-07-28 11:32:00,74.0,64.0,29.91,West,273,3.0,5.0,72,0.00,,,0.29,,2013-07-28 15:32:00,
2013-07-28 11:43:00,74.0,64.0,29.91,West,273,2.0,6.0,71,0.00,,,0.29,,2013-07-28 15:43:00,
2013-07-28 11:53:00,75.0,65.0,29.91,West,271,3.0,7.0,70,0.00,,,0.29,,2013-07-28 15:53:00,
2013-07-28 12:03:00,75.0,64.0,29.92,West,275,3.0,6.0,69,0.00,,,0.29,,2013-07-28 16:03:00,
2013-07-28 12:12:00,76.0,66.0,29.92,West,265,2.0,5.0,71,0.00,,,0.29,,2013-07-28 16:12:00,
2013-07-28 12:22:00,76.0,65.0,29.92,West,261,2.0,6.0,70,0.00,,,0.29,,2013-07-28 16:22:00,
2013-07-28 12:33:00,77.0,66.0,29.92,WSW,254,2.0,6.0,70,0.00,,,0.29,,2013-07-28 16:33:00,
2013-07-28 12:43:00,78.0,66.0,29.92,West,274,3.0,6.0,66,0.00,,,0.29,,2013-07-28 16:43:00,
2013-07-28 12:52:00,77.0,65.0,29.93,West,277,3.0,6.0,66,0.00,,,0.29,,2013-07-28 16:52:00,
2013-07-28 13:02:00,77.0,65.0,29.93,West,281,3.0,7.0,67,0.00,,,0.29,,2013-07-28 17:02:00,
2013-07-28 13:13:00,78.0,67.0,29.93,West,270,1.0,6.0,68,0.00,,,0.29,,2013-07-28 17:13:00,
2013-07-28 13:23:00,78.0,66.0,29.93,WSW,243,2.0,7.0,66,0.00,,,0.29,,2013-07-28 17:23:00,
2013-07-28 13:33:00,78.0,65.0,29.93,West,271,3.0,7.0,65,0.00,,,0.29,,2013-07-28 17:33:00,
2013-07-28 14:03:00,79.0,63.0,29.93,West,268,2.0,5.0,59,0.00,,,0.29,,2013-07-28 18:03:00,
2013-07-28 14:13:00,80.0,67.0,29.92,WSW,240,3.0,6.0,64,0.00,,,0.29,,2013-07-28 18:13:00,
2013-07-28 14:22:00,80.0,63.0,29.92,SW,217,4.0,8.0,56,0.00,,,0.29,,2013-07-28 18:22:00,
2013-07-28 14:33:00,80.0,65.0,29.92,SW,227,3.0,8.0,60,0.00,,,0.29,,2013-07-28 18:33:00,
2013-07-28 14:43:00,81.0,64.0,29.91,West,261,3.0,10.0,56,0.00,,,0.29,,2013-07-28 18:43:00,
2013-07-28 14:52:00,81.0,63.0,29.91,West,259,1.0,7.0,55,0.00,,,0.29,,2013-07-28 18:52:00,
2013-07-28 15:03:00,81.0,63.0,29.91,West,269,4.0,8.0,54,0.00,,,0.29,,2013-07-28 19:03:00,
2013-07-28 15:12:00,82.0,64.0,29.90,West,272,2.0,6.0,55,0.00,,,0.14,,2013-07-28 19:12:00,
2013-07-28 15:23:00,82.0,64.0,29.89,SW,227,1.0,6.0,55,0.00,,,0.14,,2013-07-28 19:23:00,
2013-07-28 15:33:00,82.0,64.0,29.89,SW,217,5.0,8.0,54,0.00,,,0.14,,2013-07-28 19:33:00,
2013-07-28 15:52:00,82.0,65.0,29.89,SSW,208,1.0,7.0,56,0.00,,,0.14,,2013-07-28 19:52:00,
2013-07-28 16:03:00,83.0,64.0,29.89,SSW,209,1.0,4.0,52,0.00,,,0.14,,2013-07-28 20:03:00,
2013-07-28 16:13:00,84.0,64.0,29.89,WSW,253,2.0,8.0,51,0.00,,,0.14,,2013-07-28 20:13:00,
2013-07-28 16:23:00,83.0,62.0,29.89,West,263,1.0,5.0,49,0.00,,,0.14,,2013-07-28 20:23:00,
2013-07-28 16:33:00,83.0,64.0,29.89,West,267,2.0,6.0,53,0.00,,,0.14,,2013-07-28 20:33:00,
2013-07-28 16:43:00,83.0,64.0,29.89,West,265,1.0,3.0,53,0.00,,,0.14,,2013-07-28 20:43:00,
2013-07-28 16:52:00,84.0,64.0,29.88,West,278,4.0,8.0,51,0.00,,,0.14,,2013-07-28 20:52:00,
2013-07-28 17:03:00,84.0,65.0,29.88,West,259,1.0,7.0,53,0.00,,,0.14,,2013-07-28 21:03:00,
2013-07-28 17:13:00,85.0,63.0,29.88,West,275,3.0,5.0,48,0.00,,,0.14,,2013-07-28 21:13:00,
2013-07-28 17:23:00,85.0,63.0,29.88,West,262,2.0,4.0,48,0.00,,,0.14,,2013-07-28 21:23:00,
2013-07-28 17:33:00,84.0,62.0,29.88,WSW,237,2.0,6.0,48,0.00,,,0.14,,2013-07-28 21:33:00,
2013-07-28 17:44:00,84.0,65.0,29.88,SW,219,2.0,8.0,53,0.00,,,0.14,,2013-07-28 21:44:00,
2013-07-28 17:52:00,84.0,64.0,29.88,WNW,293,0.0,3.0,51,0.00,,,0.14,,2013-07-28 21:52:00,
2013-07-28 18:02:00,82.0,63.0,29.89,West,259,3.0,5.0,52,0.00,,,0.14,,2013-07-28 22:02:00,
2013-07-28 18:12:00,82.0,61.0,29.88,SW,222,4.0,6.0,50,0.00,,,0.14,,2013-07-28 22:12:00,
2013-07-28 18:22:00,82.0,65.0,29.88,SW,223,0.0,3.0,56,0.00,,,0.14,,2013-07-28 22:22:00,
2013-07-28 18:32:00,82.0,65.0,29.88,SW,223,0.0,1.0,57,0.00,,,0.14,,2013-07-28 22:32:00,
2013-07-28 18:43:00,81.0,68.0,29.89,SW,222,0.0,1.0,64,0.00,,,0.14,,2013-07-28 22:43:00,
2013-07-28 18:52:00,81.0,64.0,29.89,SW,223,1.0,3.0,57,0.00,,,0.14,,2013-07-28 22:52:00,
2013-07-28 19:03:00,82.0,65.0,29.89,SW,223,0.0,2.0,56,0.00,,,0.14,,2013-07-28 23:03:00,
2013-07-28 19:12:00,82.0,68.0,29.89,SW,223,0.0,1.0,62,0.00,,,0.00,,2013-07-28 23:12:00,
2013-07-28 19:22:00,81.0,65.0,29.89,SW,223,1.0,3.0,59,0.00,,,0.00,,2013-07-28 23:22:00,
2013-07-28 19:33:00,80.0,64.0,29.89,SW,223,2.0,4.0,59,0.00,,,0.00,,2013-07-28 23:33:00,
2013-07-28 19:43:00,80.0,64.0,29.89,SW,219,3.0,6.0,59,0.00,,,0.00,,2013-07-28 23:43:00,
2013-07-28 19:53:00,79.0,66.0,29.90,SSW,194,7.0,12.0,64,0.00,,,0.00,,2013-07-28 23:53:00,
2013-07-28 20:03:00,78.0,66.0,29.90,SSW,210,4.0,9.0,67,0.00,,,0.00,,2013-07-29 00:03:00,
2013-07-28 20:22:00,78.0,66.0,29.91,SSW,205,1.0,3.0,67,0.00,,,0.00,,2013-07-29 00:22:00,
2013-07-28 20:32:00,78.0,67.0,29.91,SSW,205,0.0,1.0,69,0.00,,,0.00,,2013-07-29 00:32:00,
2013-07-28 20:52:00,77.0,66.0,29.91,SSW,205,0.0,2.0,68,0.00,,,0.00,,2013-07-29 00:52:00,
2013-07-28 21:02:00,77.0,67.0,29.92,SSW,205,2.0,3.0,71,0.00,,,0.00,,2013-07-29 01:02:00,
2013-07-28 21:14:00,75.0,65.0,29.93,SSW,205,1.0,3.0,72,0.00,,,0.00,,2013-07-29 01:14:00,
2013-07-28 21:29:00,75.0,65.0,29.93,SSW,205,1.0,3.0,72,0.00,,,0.00,,2013-07-29 01:29:00,
2013-07-28 21:37:00,75.0,65.0,29.93,SSW,205,1.0,3.0,72,0.00,,,0.00,,2013-07-29 01:37:00,
2013-07-28 21:58:00,74.0,65.0,29.96,SSW,200,3.0,7.0,74,0.00,,,0.00,,2013-07-29 01:58:00,
2013-07-28 22:06:00,72.0,64.0,29.96,SSW,198,1.0,6.0,76,0.00,,,0.00,,2013-07-29 02:06:00,
2013-07-28 22:14:00,72.0,64.0,29.96,SSW,198,2.0,4.0,76,0.00,,,0.00,,2013-07-29 02:14:00,
2013-07-28 22:27:00,72.0,64.0,29.96,SSW,198,1.0,3.0,76,0.00,,,0.00,,2013-07-29 02:27:00,
2013-07-28 22:38:00,71.0,63.0,29.96,SSW,198,0.0,1.0,77,0.00,,,0.00,,2013-07-29 02:38:00,
2013-07-28 22:57:00,70.0,63.0,29.97,SSW,198,0.0,0.0,79,0.00,,,0.00,,2013-07-29 02:57:00,
2013-07-28 23:05:00,69.0,63.0,29.98,SSW,198,0.0,0.0,80,0.00,,,0.00,,2013-07-29 03:05:00,
2013-07-28 23:17:00,69.0,63.0,29.98,SSW,198,0.0,1.0,80,0.00,,,0.00,,2013-07-29 03:17:00,
2013-07-28 23:25:00,69.0,63.0,29.98,SSW,198,0.0,1.0,80,0.00,,,0.00,,2013-07-29 03:25:00,
2013-07-28 23:48:00,68.0,62.0,29.98,SSW,198,0.0,0.0,80,0.00,,,0.00,,2013-07-29 03:48:00,
2013-07-28 23:57:00,68.0,62.0,29.98,SSW,198,1.0,2.0,81,0.00,,,0.00,,2013-07-29 03:57:00,